createdAt,value
2019-01-11T00:00:27.824Z,-0.50
2019-01-11T00:02:54.321Z,-0.50
2019-01-11T00:05:20.889Z,-0.50
2019-01-11T00:07:47.158Z,-0.50
2019-01-11T00:10:13.623Z,-0.50
2019-01-11T00:12:39.971Z,-0.60
2019-01-11T00:15:06.448Z,-0.50
2019-01-11T00:17:32.920Z,-0.50
2019-01-11T00:20:03.480Z,-0.60
2019-01-11T00:22:27.684Z,-0.50
2019-01-11T00:24:55.975Z,-0.60
2019-01-11T00:27:22.352Z,-0.60
2019-01-11T00:29:48.625Z,-0.70
2019-01-11T00:32:14.888Z,-0.70
2019-01-11T00:34:41.311Z,-0.70
2019-01-11T00:37:07.667Z,-0.60
2019-01-11T00:39:33.978Z,-0.60
2019-01-11T00:42:00.333Z,-0.60
2019-01-11T00:44:26.585Z,-0.70
2019-01-11T00:46:52.982Z,-0.70
2019-01-11T00:49:19.632Z,-0.70
2019-01-11T00:51:46.118Z,-0.70
2019-01-11T00:54:12.506Z,-0.70
2019-01-11T00:56:38.797Z,-0.70
2019-01-11T00:59:05.262Z,-0.80
2019-01-11T01:01:31.612Z,-0.90
2019-01-11T01:03:57.895Z,-0.90
2019-01-11T01:06:24.489Z,-1.00
2019-01-11T01:08:50.949Z,-1.00
2019-01-11T01:11:17.332Z,-1.00
2019-01-11T01:13:43.632Z,-1.00
2019-01-11T01:16:10.090Z,-1.00
2019-01-11T01:18:36.458Z,-1.00
2019-01-11T01:21:02.937Z,-1.00
2019-01-11T01:23:29.396Z,-1.00
2019-01-11T01:25:55.787Z,-1.00
2019-01-11T01:28:22.180Z,-1.10
2019-01-11T01:30:48.538Z,-1.10
2019-01-11T01:33:15.042Z,-1.10
2019-01-11T01:35:41.334Z,-1.10
2019-01-11T01:38:07.803Z,-1.00
2019-01-11T01:40:34.092Z,-1.10
2019-01-11T01:43:00.993Z,-1.00
2019-01-11T01:45:27.421Z,-0.90
2019-01-11T01:47:53.899Z,-0.80
2019-01-11T01:50:20.276Z,-0.80
2019-01-11T01:52:46.676Z,-0.70
2019-01-11T01:55:14.253Z,-0.80
2019-01-11T01:57:40.753Z,-0.80
2019-01-11T02:00:10.647Z,-0.80
2019-01-11T02:02:36.912Z,-0.80
2019-01-11T02:05:06.513Z,-0.80
2019-01-11T02:07:32.891Z,-0.80
2019-01-11T02:09:59.268Z,-0.90
2019-01-11T02:12:25.771Z,-0.90
2019-01-11T02:14:52.160Z,-0.90
2019-01-11T02:17:18.557Z,-0.90
2019-01-11T02:19:44.844Z,-1.00
2019-01-11T02:22:11.191Z,-0.90
2019-01-11T02:24:37.691Z,-0.90
2019-01-11T02:27:11.939Z,-0.90
2019-01-11T02:29:38.217Z,-0.80
2019-01-11T02:32:04.609Z,-0.80
2019-01-11T02:34:30.872Z,-0.70
2019-01-11T02:36:57.131Z,-0.80
2019-01-11T02:39:23.421Z,-0.70
2019-01-11T02:41:49.793Z,-0.80
2019-01-11T02:44:16.277Z,-0.90
2019-01-11T02:46:42.565Z,-0.90
2019-01-11T02:49:09.046Z,-0.90
2019-01-11T02:51:35.330Z,-1.00
2019-01-11T02:54:01.627Z,-1.00
2019-01-11T02:56:28.000Z,-1.00
2019-01-11T02:58:54.374Z,-0.80
2019-01-11T03:01:20.828Z,-0.80
2019-01-11T03:03:47.298Z,-0.70
2019-01-11T03:06:13.792Z,-0.80
2019-01-11T03:08:40.159Z,-0.80
2019-01-11T03:11:06.649Z,-0.80
2019-01-11T03:13:33.031Z,-0.80
2019-01-11T03:15:59.286Z,-0.90
2019-01-11T03:18:25.676Z,-0.90
2019-01-11T03:20:51.957Z,-0.90
2019-01-11T03:23:18.257Z,-0.90
2019-01-11T03:25:44.635Z,-0.90
2019-01-11T03:28:11.027Z,-0.80
2019-01-11T03:30:37.320Z,-0.90
2019-01-11T03:33:03.715Z,-0.90
2019-01-11T03:35:29.976Z,-1.00
2019-01-11T03:37:56.338Z,-0.80
2019-01-11T03:40:23.615Z,-0.90
2019-01-11T03:42:50.225Z,-1.00
2019-01-11T03:45:18.953Z,-1.00
2019-01-11T03:47:45.656Z,-1.10
2019-01-11T03:50:14.833Z,-1.10
2019-01-11T03:52:41.359Z,-1.10
2019-01-11T03:55:10.174Z,-1.00
2019-01-11T03:57:36.552Z,-1.00
2019-01-11T04:00:06.612Z,-1.00
2019-01-11T04:02:32.916Z,-1.10
2019-01-11T04:04:59.516Z,-1.10
2019-01-11T04:07:25.929Z,-1.20
2019-01-11T04:09:52.213Z,-1.20
2019-01-11T04:12:18.578Z,-1.20
2019-01-11T04:14:45.098Z,-1.20
2019-01-11T04:17:11.569Z,-1.30
2019-01-11T04:19:38.029Z,-1.30
2019-01-11T04:22:06.538Z,-1.30
2019-01-11T04:24:34.795Z,-1.20
2019-01-11T04:27:01.281Z,-1.30
2019-01-11T04:29:27.586Z,-1.30
2019-01-11T04:31:53.995Z,-1.30
2019-01-11T04:34:20.400Z,-1.30
2019-01-11T04:36:46.661Z,-1.30
2019-01-11T04:39:13.006Z,-1.40
2019-01-11T04:41:39.297Z,-1.30
2019-01-11T04:44:05.553Z,-1.30
2019-01-11T04:46:31.861Z,-1.30
2019-01-11T04:48:58.118Z,-1.30
2019-01-11T04:51:24.373Z,-1.40
2019-01-11T04:53:50.773Z,-1.50
2019-01-11T04:56:17.131Z,-1.40
2019-01-11T04:58:43.406Z,-1.50
2019-01-11T05:01:09.865Z,-1.40
2019-01-11T05:03:36.133Z,-1.40
2019-01-11T05:06:02.621Z,-1.50
2019-01-11T05:08:28.907Z,-1.50
2019-01-11T05:10:55.271Z,-1.50
2019-01-11T05:13:23.454Z,-1.50
2019-01-11T05:15:49.832Z,-1.50
2019-01-11T05:18:16.201Z,-1.50
2019-01-11T05:20:42.478Z,-1.30
2019-01-11T05:23:08.734Z,-1.30
2019-01-11T05:25:35.092Z,-1.20
2019-01-11T05:28:01.451Z,-1.30
2019-01-11T05:30:28.331Z,-1.30
2019-01-11T05:32:54.745Z,-1.30
2019-01-11T05:35:21.142Z,-1.20
2019-01-11T05:37:47.409Z,-1.20
2019-01-11T05:40:15.991Z,-1.20
2019-01-11T05:42:42.884Z,-1.20
2019-01-11T05:45:09.338Z,-1.20
2019-01-11T05:47:35.721Z,-1.10
2019-01-11T05:50:03.998Z,-1.10
2019-01-11T05:52:30.306Z,-1.10
2019-01-11T05:54:56.587Z,-1.10
2019-01-11T05:57:22.941Z,-1.00
2019-01-11T05:59:49.348Z,-1.00
2019-01-11T06:02:15.835Z,-1.00
2019-01-11T06:04:44.937Z,-1.00
2019-01-11T06:07:15.852Z,-1.10
2019-01-11T06:09:42.167Z,-1.00
2019-01-11T06:12:08.744Z,-0.90
2019-01-11T06:14:35.017Z,-0.90
2019-01-11T06:17:01.431Z,-0.90
2019-01-11T06:19:27.689Z,-0.90
2019-01-11T06:21:54.093Z,-0.90
2019-01-11T06:24:20.456Z,-0.90
2019-01-11T06:26:46.712Z,-0.80
2019-01-11T06:29:13.037Z,-0.80
2019-01-11T06:31:39.429Z,-0.90
2019-01-11T06:34:05.690Z,-0.90
2019-01-11T06:36:31.973Z,-0.90
2019-01-11T06:38:58.232Z,-1.10
2019-01-11T06:41:26.568Z,-1.10
2019-01-11T06:43:52.848Z,-1.10
2019-01-11T06:46:21.012Z,-1.10
2019-01-11T06:48:47.312Z,-1.10
2019-01-11T06:51:13.569Z,-1.10
2019-01-11T06:53:39.938Z,-1.00
2019-01-11T06:56:06.546Z,-1.10
2019-01-11T06:58:32.823Z,-1.20
2019-01-11T07:00:59.219Z,-1.20
2019-01-11T07:03:25.601Z,-1.10
2019-01-11T07:05:51.949Z,-1.10
2019-01-11T07:08:18.346Z,-1.20
2019-01-11T07:10:44.657Z,-1.10
2019-01-11T07:13:11.042Z,-1.10
2019-01-11T07:15:37.645Z,-1.00
2019-01-11T07:18:04.141Z,-1.10
2019-01-11T07:20:30.528Z,-1.10
2019-01-11T07:22:56.989Z,-1.00
2019-01-11T07:25:23.377Z,-1.00
2019-01-11T07:27:54.677Z,-1.00
2019-01-11T07:30:23.022Z,-1.00
2019-01-11T07:32:49.388Z,-1.00
2019-01-11T07:35:15.801Z,-1.00
2019-01-11T07:37:42.196Z,-1.00
2019-01-11T07:40:10.486Z,-1.10
2019-01-11T07:42:36.955Z,-1.00
2019-01-11T07:45:06.950Z,-1.20
2019-01-11T07:47:33.221Z,-1.10
2019-01-11T07:49:59.720Z,-1.10
2019-01-11T07:52:26.187Z,-1.20
2019-01-11T07:54:52.559Z,-1.20
2019-01-11T07:57:18.979Z,-1.10
2019-01-11T07:59:47.238Z,-1.10
2019-01-11T08:02:13.727Z,-1.00
2019-01-11T08:04:40.004Z,-0.90
2019-01-11T08:07:06.366Z,-0.90
2019-01-11T08:09:32.627Z,-0.90
2019-01-11T08:11:59.140Z,-0.90
2019-01-11T08:14:25.611Z,-0.80
2019-01-11T08:16:52.006Z,-0.90
2019-01-11T08:19:18.366Z,-0.90
2019-01-11T08:21:44.737Z,-0.80
2019-01-11T08:24:11.132Z,-0.80
2019-01-11T08:26:37.507Z,-0.80
2019-01-11T08:29:04.680Z,-0.70
2019-01-11T08:31:34.725Z,-0.70
2019-01-11T08:33:59.341Z,-0.70
2019-01-11T08:36:25.832Z,-0.80
2019-01-11T08:38:52.092Z,-0.90
2019-01-11T08:41:18.357Z,-0.90
2019-01-11T08:43:44.647Z,-0.90
2019-01-11T08:46:11.105Z,-0.80
2019-01-11T08:48:37.469Z,-0.70
2019-01-11T08:51:04.377Z,-0.70
2019-01-11T08:53:30.726Z,-0.70
2019-01-11T08:55:57.084Z,-0.60
2019-01-11T08:58:23.436Z,-0.70
2019-01-11T09:00:49.688Z,-0.60
2019-01-11T09:03:15.975Z,-0.60
2019-01-11T09:05:42.241Z,-0.50
2019-01-11T09:08:08.634Z,-0.40
2019-01-11T09:10:35.053Z,-0.40
2019-01-11T09:13:01.241Z,-0.40
2019-01-11T09:15:27.524Z,-0.40
2019-01-11T09:18:12.622Z,-0.30
2019-01-11T09:20:39.630Z,-0.30
2019-01-11T09:23:06.016Z,-0.40
2019-01-11T09:25:32.358Z,-0.30
2019-01-11T09:27:58.744Z,-0.20
2019-01-11T09:30:25.214Z,-0.20
2019-01-11T09:32:51.505Z,-0.20
2019-01-11T09:35:17.871Z,-0.10
2019-01-11T09:37:44.248Z,-0.10
2019-01-11T09:40:10.832Z,0.00
2019-01-11T09:42:37.184Z,0.00
2019-01-11T09:45:05.353Z,0.00
2019-01-11T09:47:31.637Z,-0.10
2019-01-11T09:49:57.896Z,0.00
2019-01-11T09:52:24.169Z,0.00
2019-01-11T09:54:50.547Z,0.00
2019-01-11T09:57:16.910Z,0.10
2019-01-11T09:59:43.391Z,0.10
2019-01-11T10:02:14.525Z,0.10
2019-01-11T10:04:41.109Z,0.20
2019-01-11T10:07:12.025Z,0.30
2019-01-11T10:09:38.386Z,0.40
2019-01-11T10:12:04.773Z,0.20
2019-01-11T10:14:31.355Z,0.20
2019-01-11T10:16:57.625Z,0.20
2019-01-11T10:19:23.931Z,0.30
2019-01-11T10:21:50.390Z,0.30
2019-01-11T10:24:16.662Z,0.30
2019-01-11T10:26:42.944Z,0.30
2019-01-11T10:29:09.333Z,0.30
2019-01-11T10:31:35.629Z,0.20
2019-01-11T10:34:01.980Z,0.20
2019-01-11T10:36:28.385Z,0.30
2019-01-11T10:38:54.741Z,0.20
2019-01-11T10:41:21.031Z,0.30
2019-01-11T10:43:47.294Z,0.30
2019-01-11T10:46:18.219Z,0.30
2019-01-11T10:48:44.551Z,0.30
2019-01-11T10:51:10.904Z,0.30
2019-01-11T10:53:37.291Z,0.30
2019-01-11T10:56:03.791Z,0.30
2019-01-11T10:58:30.040Z,0.30
2019-01-11T11:00:56.300Z,0.30
2019-01-11T11:03:22.718Z,0.30
2019-01-11T11:05:49.189Z,0.20
2019-01-11T11:08:15.490Z,0.20
2019-01-11T11:10:42.154Z,0.20
2019-01-11T11:13:08.525Z,0.30
2019-01-11T11:15:35.010Z,0.30
2019-01-11T11:18:01.364Z,0.40
2019-01-11T11:20:27.961Z,0.40
2019-01-11T11:22:54.228Z,0.40
2019-01-11T11:25:20.800Z,0.40
2019-01-11T11:27:47.382Z,0.40
2019-01-11T11:30:15.658Z,0.40
2019-01-11T11:32:44.061Z,0.40
2019-01-11T11:35:10.575Z,0.40
2019-01-11T11:37:36.843Z,0.40
2019-01-11T11:40:05.908Z,0.40
2019-01-11T11:42:32.289Z,0.40
2019-01-11T11:44:58.576Z,0.40
2019-01-11T11:47:24.944Z,0.40
2019-01-11T11:49:51.340Z,0.40
2019-01-11T11:52:17.636Z,0.40
2019-01-11T11:54:43.903Z,0.40
2019-01-11T11:57:10.263Z,0.50
2019-01-11T11:59:36.548Z,0.50
2019-01-11T12:02:03.013Z,0.50
2019-01-11T12:04:29.274Z,0.50
2019-01-11T12:06:55.585Z,0.50
2019-01-11T12:09:21.828Z,0.50
2019-01-11T12:11:48.118Z,0.50
2019-01-11T12:14:14.500Z,0.30
2019-01-11T12:16:44.028Z,0.20
2019-01-11T12:19:10.561Z,0.10
2019-01-11T12:21:36.952Z,0.10
2019-01-11T12:24:03.442Z,0.10
2019-01-11T12:26:29.714Z,0.00
2019-01-11T12:28:56.203Z,-0.10
2019-01-11T12:31:22.556Z,-0.10
2019-01-11T12:33:48.849Z,0.00
2019-01-11T12:36:15.228Z,-0.10
2019-01-11T12:38:44.710Z,-0.20
2019-01-11T12:41:10.987Z,-0.20
2019-01-11T12:43:37.243Z,-0.10
2019-01-11T12:46:03.601Z,-0.20
2019-01-11T12:48:30.973Z,-0.20
2019-01-11T12:50:57.332Z,-0.10
2019-01-11T12:53:23.723Z,0.00
2019-01-11T12:55:50.092Z,0.00
2019-01-11T12:58:18.038Z,0.10
2019-01-11T13:00:44.433Z,0.10
2019-01-11T13:03:10.685Z,0.00
2019-01-11T13:05:36.980Z,0.00
2019-01-11T13:08:03.368Z,-0.10
2019-01-11T13:10:29.624Z,-0.20
2019-01-11T13:12:55.920Z,-0.20
2019-01-11T13:15:23.429Z,-0.30
2019-01-11T13:17:55.555Z,-0.30
2019-01-11T13:20:22.040Z,-0.30
2019-01-11T13:22:48.608Z,-0.20
2019-01-11T13:25:15.113Z,-0.30
2019-01-11T13:27:41.899Z,-0.20
2019-01-11T13:30:13.592Z,-0.20
2019-01-11T13:32:40.001Z,-0.20
2019-01-11T13:35:06.762Z,-0.20
2019-01-11T13:37:33.132Z,-0.20
2019-01-11T13:39:59.427Z,-0.30
2019-01-11T13:42:25.789Z,-0.20
2019-01-11T13:44:52.050Z,-0.30
2019-01-11T13:47:18.429Z,-0.20
2019-01-11T13:49:46.899Z,-0.20
2019-01-11T13:52:13.173Z,-0.20
2019-01-11T13:54:39.455Z,-0.20
2019-01-11T13:57:05.736Z,-0.40
2019-01-11T13:59:32.097Z,-0.30
2019-01-11T14:01:58.587Z,-0.20
2019-01-11T14:04:24.864Z,-0.30
2019-01-11T14:06:51.122Z,-0.30
2019-01-11T14:09:17.413Z,-0.30
2019-01-11T14:11:43.692Z,-0.30
2019-01-11T14:14:10.062Z,-0.30
2019-01-11T14:16:36.347Z,-0.30
2019-01-11T14:19:02.748Z,-0.20
2019-01-11T14:21:29.198Z,-0.20
2019-01-11T14:23:55.461Z,-0.10
2019-01-11T14:26:21.761Z,-0.10
2019-01-11T14:28:51.428Z,-0.10
2019-01-11T14:31:17.845Z,-0.10
2019-01-11T14:33:44.255Z,-0.10
2019-01-11T14:36:10.721Z,-0.20
2019-01-11T14:38:37.029Z,-0.20
2019-01-11T14:41:03.507Z,-0.20
2019-01-11T14:43:29.937Z,-0.20
2019-01-11T14:45:56.220Z,-0.20
2019-01-11T14:48:22.583Z,-0.30
2019-01-11T14:50:48.881Z,-0.30
2019-01-11T14:53:15.201Z,-0.40
2019-01-11T14:55:41.481Z,-0.40
2019-01-11T14:58:07.869Z,-0.30
2019-01-11T15:00:34.520Z,-0.20
2019-01-11T15:03:01.029Z,-0.20
2019-01-11T15:05:27.401Z,-0.20
2019-01-11T15:08:03.212Z,-0.20
2019-01-11T15:10:35.554Z,-0.30
2019-01-11T15:13:09.671Z,-0.40
2019-01-11T15:15:36.034Z,-0.30
2019-01-11T15:18:04.456Z,-0.20
2019-01-11T15:20:30.733Z,-0.20
2019-01-11T15:22:57.082Z,-0.20
2019-01-11T15:25:23.361Z,-0.20
2019-01-11T15:27:49.638Z,-0.20
2019-01-11T15:30:17.293Z,-0.10
2019-01-11T15:32:43.771Z,-0.10
2019-01-11T15:35:10.251Z,-0.20
2019-01-11T15:37:42.822Z,-0.20
2019-01-11T15:40:15.503Z,-0.20
2019-01-11T15:42:41.989Z,-0.20
2019-01-11T15:45:08.509Z,-0.20
2019-01-11T15:47:34.794Z,-0.20
2019-01-11T15:50:01.263Z,-0.20
2019-01-11T15:52:33.130Z,-0.20
2019-01-11T15:54:55.821Z,-0.10
2019-01-11T15:57:24.090Z,-0.10
2019-01-11T16:00:00.942Z,-0.10
2019-01-11T16:02:27.721Z,-0.10
2019-01-11T16:04:58.970Z,-0.10
2019-01-11T16:07:25.337Z,-0.10
2019-01-11T16:09:54.904Z,0.00
2019-01-11T16:12:21.262Z,0.00
2019-01-11T16:14:57.101Z,0.00
2019-01-11T16:17:30.468Z,0.00
2019-01-11T16:19:56.918Z,0.00
2019-01-11T16:22:23.257Z,-0.20
2019-01-11T16:24:49.830Z,-0.20
2019-01-11T16:27:16.229Z,-0.20
2019-01-11T16:29:42.555Z,-0.20
2019-01-11T16:32:09.146Z,-0.20
2019-01-11T16:34:35.432Z,-0.40
2019-01-11T16:37:02.077Z,-0.30
2019-01-11T16:39:28.484Z,-0.40
2019-01-11T16:41:54.846Z,-0.30
2019-01-11T16:44:21.305Z,-0.30
2019-01-11T16:46:47.614Z,-0.30
2019-01-11T16:49:13.987Z,-0.30
2019-01-11T16:51:40.286Z,-0.30
2019-01-11T16:54:06.691Z,-0.20
2019-01-11T16:56:32.976Z,-0.30
2019-01-11T16:58:59.345Z,-0.30
2019-01-11T17:01:25.702Z,-0.30
2019-01-11T17:03:52.588Z,-0.30
2019-01-11T17:06:19.040Z,-0.40
2019-01-11T17:08:45.617Z,-0.30
2019-01-11T17:11:31.743Z,-0.30
2019-01-11T17:13:58.014Z,-0.30
2019-01-11T17:16:24.327Z,-0.40
2019-01-11T17:18:50.925Z,-0.30
2019-01-11T17:21:17.467Z,-0.30
2019-01-11T17:23:43.747Z,-0.30
2019-01-11T17:26:10.125Z,-0.40
2019-01-11T17:28:36.401Z,-0.40
2019-01-11T17:31:02.911Z,-0.40
2019-01-11T17:33:29.174Z,-0.40
2019-01-11T17:35:55.475Z,-0.40
2019-01-11T17:38:22.758Z,-0.30
2019-01-11T17:40:49.310Z,-0.40
2019-01-11T17:43:15.604Z,-0.50
2019-01-11T17:45:41.875Z,-0.50
2019-01-11T17:48:08.224Z,-0.50
2019-01-11T17:50:34.749Z,-0.50
2019-01-11T17:53:01.137Z,-0.40
2019-01-11T17:55:27.712Z,-0.30
2019-01-11T17:57:54.289Z,-0.30
2019-01-11T18:00:20.643Z,-0.30
2019-01-11T18:02:46.880Z,-0.40
2019-01-11T18:05:13.598Z,-0.30
2019-01-11T18:07:40.080Z,-0.30
2019-01-11T18:10:08.252Z,-0.30
2019-01-11T18:12:34.762Z,-0.40
2019-01-11T18:15:01.437Z,-0.40
2019-01-11T18:17:28.183Z,-0.40
2019-01-11T18:19:54.619Z,-0.30
2019-01-11T18:22:21.093Z,-0.40
2019-01-11T18:24:47.321Z,-0.40
2019-01-11T18:27:13.861Z,-0.40
2019-01-11T18:29:40.105Z,-0.30
2019-01-11T18:32:06.506Z,-0.30
2019-01-11T18:34:32.787Z,-0.40
2019-01-11T18:36:59.196Z,-0.40
2019-01-11T18:39:25.585Z,-0.40
2019-01-11T18:41:51.872Z,-0.40
2019-01-11T18:44:18.153Z,-0.40
2019-01-11T18:46:44.497Z,-0.40
2019-01-11T18:49:10.767Z,-0.40
2019-01-11T18:51:37.281Z,-0.40
2019-01-11T18:54:04.797Z,-0.40
2019-01-11T18:56:31.074Z,-0.40
2019-01-11T18:58:57.581Z,-0.40
2019-01-11T19:01:24.059Z,-0.50
2019-01-11T19:03:50.541Z,-0.50
2019-01-11T19:06:16.981Z,-0.60
2019-01-11T19:08:43.463Z,-0.60
2019-01-11T19:11:09.725Z,-0.60
2019-01-11T19:13:36.011Z,-0.60
2019-01-11T19:16:02.501Z,-0.60
2019-01-11T19:18:28.752Z,-0.60
2019-01-11T19:20:55.027Z,-0.50
2019-01-11T19:23:21.347Z,-0.50
2019-01-11T19:25:47.696Z,-0.50
2019-01-11T19:28:14.195Z,-0.60
2019-01-11T19:30:40.675Z,-0.60
2019-01-11T19:33:07.076Z,-0.60
2019-01-11T19:35:33.523Z,-0.60
2019-01-11T19:38:00.076Z,-0.70
2019-01-11T19:40:26.563Z,-0.80
2019-01-11T19:42:53.030Z,-0.70
2019-01-11T19:45:19.587Z,-0.60
2019-01-11T19:47:46.065Z,-0.60
2019-01-11T19:50:18.144Z,-0.50
2019-01-11T19:52:44.600Z,-0.50
2019-01-11T19:55:11.076Z,-0.50
2019-01-11T19:57:37.536Z,-0.50
2019-01-11T20:00:24.653Z,-0.50
2019-01-11T20:02:51.552Z,-0.60
2019-01-11T20:05:18.288Z,-0.60
2019-01-11T20:07:44.747Z,-0.50
2019-01-11T20:10:23.334Z,-0.40
2019-01-11T20:12:49.799Z,-0.40
2019-01-11T20:15:16.302Z,-0.40
2019-01-11T20:17:42.695Z,-0.40
2019-01-11T20:20:13.236Z,-0.40
2019-01-11T20:22:39.702Z,-0.40
2019-01-11T20:25:14.626Z,-0.40
2019-01-11T20:27:41.097Z,-0.50
2019-01-11T20:30:11.074Z,-0.40
2019-01-11T20:32:37.464Z,-0.40
2019-01-11T20:35:05.430Z,-0.30
2019-01-11T20:37:32.212Z,-0.30
2019-01-11T20:39:58.614Z,-0.30
2019-01-11T20:42:25.120Z,-0.20
2019-01-11T20:44:51.656Z,-0.20
2019-01-11T20:47:17.959Z,-0.20
2019-01-11T20:49:44.365Z,-0.20
2019-01-11T20:52:10.851Z,-0.20
2019-01-11T20:54:37.236Z,-0.10
2019-01-11T20:57:03.605Z,-0.20
2019-01-11T20:59:29.915Z,-0.20
2019-01-11T21:01:56.322Z,-0.10
2019-01-11T21:04:22.639Z,-0.20
2019-01-11T21:06:48.993Z,-0.10
2019-01-11T21:09:15.289Z,-0.10
2019-01-11T21:11:41.652Z,0.00
2019-01-11T21:14:08.011Z,-0.10
2019-01-11T21:16:34.349Z,-0.10
2019-01-11T21:19:00.605Z,-0.10
2019-01-11T21:21:26.986Z,-0.10
2019-01-11T21:23:53.268Z,-0.10
2019-01-11T21:26:19.782Z,0.00
2019-01-11T21:28:46.164Z,0.00
2019-01-11T21:31:12.412Z,0.00
2019-01-11T21:33:38.762Z,0.00
2019-01-11T21:36:05.161Z,0.10
2019-01-11T21:38:31.564Z,0.10
2019-01-11T21:40:57.946Z,0.00
2019-01-11T21:43:24.312Z,0.00
2019-01-11T21:45:50.604Z,0.10
2019-01-11T21:48:17.083Z,0.10
2019-01-11T21:50:43.487Z,0.10
2019-01-11T21:53:09.855Z,0.00
2019-01-11T21:55:36.220Z,0.00
2019-01-11T21:58:03.108Z,0.10
2019-01-11T22:00:32.664Z,0.10
2019-01-11T22:02:59.149Z,0.00
2019-01-11T22:05:25.633Z,0.10
2019-01-11T22:07:52.008Z,0.20
2019-01-11T22:10:18.495Z,0.10
2019-01-11T22:12:44.810Z,0.10
2019-01-11T22:15:14.305Z,0.10
2019-01-11T22:17:40.656Z,0.10
2019-01-11T22:20:10.462Z,0.10
2019-01-11T22:22:36.730Z,0.10
2019-01-11T22:25:05.400Z,0.10
2019-01-11T22:27:31.885Z,0.20
2019-01-11T22:29:58.390Z,0.20
2019-01-11T22:32:24.800Z,0.30
2019-01-11T22:34:51.209Z,0.30
2019-01-11T22:37:17.652Z,0.20
2019-01-11T22:39:43.909Z,0.20
2019-01-11T22:42:10.317Z,0.30
2019-01-11T22:44:36.762Z,0.30
2019-01-11T22:47:03.206Z,0.30
2019-01-11T22:49:29.474Z,0.20
2019-01-11T22:51:55.845Z,0.30
2019-01-11T22:54:22.232Z,0.30
2019-01-11T22:56:48.514Z,0.30
2019-01-11T22:59:14.933Z,0.30
2019-01-11T23:01:50.748Z,0.30
2019-01-11T23:04:17.255Z,0.30
2019-01-11T23:06:50.240Z,0.30
2019-01-11T23:09:16.501Z,0.30
2019-01-11T23:12:13.878Z,0.40
2019-01-11T23:14:40.257Z,0.40
2019-01-11T23:17:10.394Z,0.40
2019-01-11T23:19:36.880Z,0.50
2019-01-11T23:22:03.371Z,0.50
2019-01-11T23:24:29.774Z,0.50
2019-01-11T23:26:56.031Z,0.50
2019-01-11T23:29:22.428Z,0.40
2019-01-11T23:31:48.740Z,0.50
2019-01-11T23:34:14.992Z,0.50
2019-01-11T23:36:41.381Z,0.50
2019-01-11T23:39:07.861Z,0.60
2019-01-11T23:41:34.255Z,0.60
2019-01-11T23:44:00.641Z,0.50
2019-01-11T23:46:27.128Z,0.60
2019-01-11T23:48:53.432Z,0.60
2019-01-11T23:51:19.801Z,0.60
2019-01-11T23:53:46.273Z,0.60
2019-01-11T23:56:12.731Z,0.60
2019-01-11T23:58:58.898Z,0.60
